Detall de PIREP

Printer-friendly versionPDF version

[2015/01/18 10:08:00]
Flight IATA:CT3405
Pilot Number:012
Company ICAO:CAT
Aircraft Type:DC85/A
PAX:132
Aircraft Registration:PAX
Departing Airport: GCLP
Destination Airport: LEBL
Alternate Airport:LEPA
Online: VATSIM
Route:KORAL UN871 OSDAM UB28 BARPA UM985 PIMOS UM445 BEGOX UN860 VLC UM985 SOPET UN608 MATEX
Flight Level:F380
No Slew and time accel
No pause
Crash detect
Detect pilot in Cockpit between each 30 and 45 minutes
10:08 Zero fuel Weight: 162243 Lbs, Fuel Weight: 57043 Lbs
10:08 VATSIM:GCLP 180930Z 36013KT 9999 BKN040 17/08 Q1026 NOSIG
10:08 VATSIM:LEBL 180930Z 32007G18KT 280V350 9999 FEW035 05/00 Q1018 NOSIG
10:13 Parking Brakes off
10:18 Take-off
10:18 Take off Weight: 218451 Lbs
10:18 Wind: 005º @ 012 Knots Heading: 019º
10:18 POS N27º 55´ 52´´ W015º 23´ 12´´
10:18 Gear Up: 162 Knots
10:18 Flaps:2 at 162 Knots
10:19 Flaps:1 at 178 Knots
10:19 Flaps:0 at 191 Knots
10:33 Wind:266º@046 Knots Heading: 054º Ground Speed: 390 Knots Altitude 37385 ft
10:33 TOC
10:33 Fuel Weight: 51247 Lb
10:48 Wind:268º@045 Knots Heading: 053º Ground Speed: 520 Knots Altitude 38330 ft
11:03 Wind:263º@034 Knots Heading: 054º Ground Speed: 514 Knots Altitude 38264 ft
11:18 Wind:255º@029 Knots Heading: 029º Ground Speed: 506 Knots Altitude 38172 ft
11:33 Wind:238º@028 Knots Heading: 031º Ground Speed: 505 Knots Altitude 38077 ft
11:48 Wind:228º@023 Knots Heading: 064º Ground Speed: 503 Knots Altitude 38064 ft
12:03 Wind:234º@029 Knots Heading: 045º Ground Speed: 505 Knots Altitude 38129 ft
12:18 Wind:255º@035 Knots Heading: 050º Ground Speed: 506 Knots Altitude 38080 ft
12:33 Wind:271º@048 Knots Heading: 007º Ground Speed: 481 Knots Altitude 38064 ft
12:35 TOD
12:35 Fuel Weight: 27018 Lb
12:48 Wind:272º@023 Knots Heading: 064º GroundSpeed: 300 Knots Altitude 12421 ft
12:48 Flaps:1 at 237 Knots
12:52 Flaps:2 at 191 Knots
12:54 Flaps:3 at 204 Knots
12:55 Gear Down: 155 Knots
12:55 Flaps:4 at 141 Knots
12:59 TouchDown:Rate -305 ft/min Speed: 119 Knots
13:00 Flaps:1 at 48 Knots
13:00 Flaps:0 at 49 Knots
13:00 VATSIM:LEBL 181230Z 22005KT 180V240 9999 FEW035 12/03 Q1015 NOSIG
13:00 Land
13:00 Wind:359º@002 Knots
13:00 Heading: 247º
13:00 Flight Duration: 02:42
13:00 Landing Weight: 186774 Lbs
13:00 POS N41º 17´ 57´´ E002º 05´ 06´´
13:03 Parking brakes on
13:03 Block to Block Duration: 02:50
13:03 Final Fuel: 23961 Lbls
13:03 Spent Fuel: 33082 Lbls
13:03 Flight Length: 1238 NM
13:03 TOD Land Length: 129 NM

Exportar CSV

Powered by Drupal - Modified by Danger4k